createdAt,value
2023-07-26T06:34:03.594Z,35.20
2023-07-26T06:35:36.148Z,35.35
2023-07-26T06:37:09.373Z,35.64
2023-07-26T06:38:41.561Z,35.82
2023-07-26T06:40:15.279Z,36.13
2023-07-26T06:41:47.458Z,36.45
2023-07-26T06:43:21.650Z,36.73
2023-07-26T06:44:53.839Z,37.00
2023-07-26T06:46:27.328Z,37.19
2023-07-26T06:47:59.635Z,37.19
2023-07-26T06:49:34.597Z,37.21
2023-07-26T06:51:09.523Z,37.09
2023-07-26T06:52:41.870Z,37.05
2023-07-26T06:54:15.074Z,37.24
2023-07-26T06:55:48.354Z,37.50
2023-07-26T06:57:20.550Z,37.85
2023-07-26T06:58:54.489Z,38.01
2023-07-26T07:00:28.792Z,37.97
2023-07-26T07:02:02.318Z,37.89
2023-07-26T07:03:34.998Z,37.99
2023-07-26T07:05:10.923Z,38.30
2023-07-26T07:06:44.143Z,38.63
2023-07-26T07:08:17.357Z,38.87
2023-07-26T07:09:49.478Z,39.10
2023-07-26T07:11:23.095Z,39.27
2023-07-26T07:12:55.253Z,38.99
2023-07-26T07:14:28.483Z,38.69
2023-07-26T07:16:00.730Z,38.82
2023-07-26T07:17:34.221Z,38.99
2023-07-26T07:19:06.557Z,39.20
2023-07-26T07:20:41.158Z,39.29
2023-07-26T07:22:13.298Z,39.42
2023-07-26T07:23:47.855Z,39.41
2023-07-26T07:25:20.025Z,39.45
2023-07-26T07:26:53.274Z,39.36
2023-07-26T07:28:25.686Z,39.10
2023-07-26T07:30:02.356Z,39.45
2023-07-26T07:31:34.785Z,39.71
2023-07-26T07:33:08.423Z,39.78
2023-07-26T07:34:41.700Z,39.54
2023-07-26T07:36:19.839Z,39.59
2023-07-26T07:37:52.962Z,39.50
2023-07-26T07:39:28.312Z,39.57
2023-07-26T07:41:00.437Z,39.45
2023-07-26T07:42:33.905Z,39.45
2023-07-26T07:44:07.096Z,39.44
2023-07-26T07:45:42.524Z,39.15
2023-07-26T07:47:17.436Z,39.10
2023-07-26T07:48:51.031Z,39.22
2023-07-26T07:50:23.698Z,39.39
2023-07-26T07:51:58.272Z,39.52
2023-07-26T07:53:31.192Z,39.64
2023-07-26T07:55:04.894Z,39.44
2023-07-26T07:56:38.120Z,39.15
2023-07-26T07:58:10.281Z,38.94
2023-07-26T07:59:43.526Z,38.95
2023-07-26T08:01:17.170Z,38.96
2023-07-26T08:02:49.468Z,38.94
2023-07-26T08:04:22.757Z,39.27
2023-07-26T08:05:55.521Z,39.48
2023-07-26T08:07:30.330Z,39.42
2023-07-26T08:09:03.504Z,39.67
2023-07-26T08:10:38.698Z,39.75
2023-07-26T08:12:12.265Z,39.36
2023-07-26T08:13:44.479Z,39.14
2023-07-26T08:15:17.935Z,39.23
2023-07-26T08:16:50.301Z,38.98
2023-07-26T08:18:23.837Z,38.99
2023-07-26T08:19:58.012Z,39.03
2023-07-26T08:21:31.700Z,38.90
2023-07-26T08:23:06.034Z,38.65
2023-07-26T08:24:40.055Z,38.45
2023-07-26T08:26:13.906Z,38.38
2023-07-26T08:27:47.061Z,38.59
2023-07-26T08:29:19.210Z,38.91
2023-07-26T08:30:52.963Z,39.39
2023-07-26T08:32:25.449Z,39.85
2023-07-26T08:33:58.619Z,40.14
2023-07-26T08:35:31.708Z,40.42
2023-07-26T08:37:05.578Z,40.76
2023-07-26T08:38:39.429Z,40.76
2023-07-26T08:40:13.841Z,40.87
2023-07-26T08:41:46.126Z,41.24
2023-07-26T08:43:20.965Z,41.14
2023-07-26T08:44:56.016Z,40.93
2023-07-26T08:46:29.986Z,41.14
2023-07-26T08:48:03.252Z,41.39
2023-07-26T08:49:37.364Z,41.74
2023-07-26T08:51:10.130Z,41.47
2023-07-26T08:52:43.730Z,41.50
2023-07-26T08:54:18.905Z,41.77
2023-07-26T08:55:51.486Z,41.99
2023-07-26T08:57:26.912Z,42.20
2023-07-26T08:59:00.521Z,42.51
2023-07-26T09:00:33.839Z,42.64
2023-07-26T09:02:07.562Z,42.78
2023-07-26T09:03:41.492Z,42.82
2023-07-26T09:05:14.163Z,42.84
2023-07-26T09:06:49.587Z,42.98
2023-07-26T09:08:22.698Z,43.17
2023-07-26T09:09:57.517Z,43.10
2023-07-26T09:11:30.984Z,43.03
2023-07-26T09:13:11.011Z,42.72
2023-07-26T09:14:43.330Z,42.83
2023-07-26T09:16:16.905Z,42.78
2023-07-26T09:17:51.167Z,42.70
2023-07-26T09:19:30.166Z,42.86
2023-07-26T09:21:03.244Z,43.07
2023-07-26T09:22:36.872Z,43.16
2023-07-26T09:24:11.584Z,43.09
2023-07-26T09:25:46.457Z,43.16
2023-07-26T09:27:20.811Z,43.38
2023-07-26T09:28:53.365Z,43.56
2023-07-26T09:30:26.925Z,43.72
2023-07-26T09:31:59.267Z,43.95
2023-07-26T09:33:33.881Z,43.99
2023-07-26T09:35:06.640Z,43.77
2023-07-26T09:36:45.368Z,43.34
2023-07-26T09:38:21.264Z,43.04
2023-07-26T09:39:53.500Z,43.22
2023-07-26T09:41:28.234Z,43.22
2023-07-26T09:43:01.859Z,43.12
2023-07-26T09:44:34.942Z,43.33
2023-07-26T09:46:11.648Z,43.35
2023-07-26T09:47:45.411Z,43.25
2023-07-26T09:50:56.961Z,43.02
2023-07-26T09:52:33.042Z,43.12
2023-07-26T09:55:43.006Z,42.90
2023-07-26T09:57:17.123Z,42.75
2023-07-26T09:58:52.344Z,42.79
2023-07-26T10:00:28.044Z,42.82
2023-07-26T10:02:04.531Z,42.90
2023-07-26T10:03:41.085Z,43.08
2023-07-26T10:05:16.489Z,42.91
2023-07-26T10:06:53.548Z,42.76
2023-07-26T10:08:26.585Z,42.86
2023-07-26T10:10:02.346Z,42.66
2023-07-26T10:11:35.929Z,42.25
2023-07-26T10:13:12.274Z,41.92
2023-07-26T10:14:44.812Z,41.89
2023-07-26T10:16:18.239Z,41.92
2023-07-26T10:17:53.676Z,41.97
2023-07-26T10:19:30.025Z,41.87
2023-07-26T10:21:04.597Z,41.62
2023-07-26T10:22:42.296Z,41.58
2023-07-26T10:24:17.191Z,41.39
2023-07-26T10:25:50.294Z,41.31
2023-07-26T10:27:24.087Z,41.30
2023-07-26T10:29:00.952Z,41.35
2023-07-26T10:30:34.600Z,41.10
2023-07-26T10:32:08.796Z,40.95
2023-07-26T10:33:48.523Z,40.93
2023-07-26T10:35:29.347Z,40.86
2023-07-26T10:37:16.138Z,40.77
2023-07-26T10:38:51.703Z,40.85
2023-07-26T10:40:31.942Z,40.93
2023-07-26T10:42:05.523Z,41.07
2023-07-26T10:43:41.467Z,41.03
2023-07-26T10:45:39.622Z,41.24
2023-07-26T10:47:11.900Z,41.22
2023-07-26T10:48:45.173Z,41.24
2023-07-26T10:50:27.113Z,41.11
2023-07-26T10:52:01.533Z,41.14
2023-07-26T10:53:38.466Z,40.93
2023-07-26T10:55:25.906Z,40.74
2023-07-26T10:57:23.354Z,40.73
2023-07-26T10:58:56.540Z,40.71
2023-07-26T11:00:38.680Z,40.81
2023-07-26T11:02:10.941Z,40.82
2023-07-26T11:03:44.612Z,40.72
2023-07-26T11:05:18.097Z,40.72
2023-07-26T11:06:56.790Z,40.79
2023-07-26T11:08:45.715Z,40.80
2023-07-26T11:10:18.974Z,40.66
2023-07-26T11:11:57.398Z,40.65
2023-07-26T11:13:30.102Z,40.63
2023-07-26T11:16:13.096Z,40.64
2023-07-26T11:16:59.592Z,40.69
2023-07-26T11:18:31.859Z,40.51
2023-07-26T11:20:05.919Z,40.59
2023-07-26T11:21:40.556Z,40.36
2023-07-26T11:23:18.768Z,40.35
2023-07-26T11:24:51.245Z,40.21
2023-07-26T11:26:24.627Z,40.18
2023-07-26T11:27:56.808Z,40.15
2023-07-26T11:29:30.626Z,40.20
2023-07-26T11:31:04.123Z,40.25
2023-07-26T11:32:44.026Z,40.28
2023-07-26T11:34:18.584Z,40.27
2023-07-26T11:35:51.484Z,40.17
2023-07-26T11:37:25.008Z,40.20
2023-07-26T11:38:57.139Z,40.10
2023-07-26T11:40:30.360Z,40.20
2023-07-26T11:42:04.212Z,40.40
2023-07-26T11:43:40.388Z,40.51
2023-07-26T11:45:14.165Z,40.43
2023-07-26T11:46:47.502Z,40.36
2023-07-26T11:48:21.730Z,40.29
2023-07-26T11:49:54.902Z,40.24
2023-07-26T11:51:32.472Z,40.12
2023-07-26T11:53:05.846Z,40.14
2023-07-26T11:54:54.654Z,40.22
2023-07-26T11:56:32.031Z,40.31
2023-07-26T11:58:06.178Z,40.27
2023-07-26T11:59:39.873Z,40.24
2023-07-26T12:01:16.887Z,40.22
2023-07-26T12:02:49.153Z,40.32
2023-07-26T12:04:23.795Z,40.25
2023-07-26T12:05:57.774Z,40.14
2023-07-26T12:07:33.059Z,40.18
2023-07-26T12:09:11.207Z,40.18
2023-07-26T12:10:44.155Z,40.00
2023-07-26T12:12:17.677Z,39.79
2023-07-26T12:13:50.920Z,39.73
2023-07-26T12:15:24.159Z,39.93
2023-07-26T12:16:57.866Z,39.93
2023-07-26T12:18:30.350Z,39.86
2023-07-26T12:20:11.202Z,39.84
2023-07-26T12:21:49.938Z,39.87
2023-07-26T12:23:22.990Z,39.87
2023-07-26T12:24:56.975Z,39.88
2023-07-26T12:26:31.616Z,39.87
2023-07-26T12:28:07.268Z,39.97
2023-07-26T12:29:41.981Z,40.05
2023-07-26T12:31:18.897Z,40.05
2023-07-26T12:33:10.906Z,40.04
2023-07-26T12:34:44.258Z,40.03
2023-07-26T12:36:17.770Z,40.12
2023-07-26T12:37:51.654Z,40.23
2023-07-26T12:39:25.765Z,40.22
2023-07-26T12:40:57.903Z,40.23
2023-07-26T12:42:31.071Z,40.22
2023-07-26T12:44:06.555Z,40.19
2023-07-26T12:45:39.766Z,40.21
2023-07-26T12:47:28.845Z,40.31
2023-07-26T12:49:03.046Z,40.25
2023-07-26T12:50:35.316Z,40.17
2023-07-26T12:52:10.496Z,40.21
2023-07-26T12:53:42.864Z,40.20
2023-07-26T12:55:15.990Z,40.32
2023-07-26T12:56:49.177Z,40.36
2023-07-26T12:58:21.930Z,40.41
2023-07-26T12:59:55.493Z,40.49
2023-07-26T13:01:27.929Z,40.58
2023-07-26T13:03:01.380Z,40.57
2023-07-26T13:04:35.004Z,40.60
2023-07-26T13:06:07.410Z,40.47
2023-07-26T13:07:42.514Z,40.42
2023-07-26T13:09:14.765Z,40.43
2023-07-26T13:10:48.319Z,40.35
2023-07-26T13:12:21.516Z,40.31
2023-07-26T13:13:53.654Z,40.22
2023-07-26T13:15:27.233Z,40.25
2023-07-26T13:16:59.908Z,40.26
2023-07-26T13:18:33.439Z,40.20
2023-07-26T13:20:06.785Z,40.08
2023-07-26T13:21:40.082Z,39.87
2023-07-26T13:23:15.784Z,39.88
2023-07-26T13:24:48.073Z,39.94
2023-07-26T13:26:21.316Z,39.80
2023-07-26T13:27:53.517Z,39.86
2023-07-26T13:29:27.046Z,39.98
2023-07-26T13:30:59.416Z,39.86
2023-07-26T13:32:32.770Z,39.75
2023-07-26T13:34:05.949Z,39.70
2023-07-26T13:35:38.266Z,39.80
2023-07-26T13:37:11.522Z,39.99
2023-07-26T13:38:45.327Z,40.08
2023-07-26T13:40:20.000Z,40.16
2023-07-26T13:41:52.715Z,40.05
2023-07-26T13:43:26.895Z,40.00
2023-07-26T13:45:00.444Z,39.96
2023-07-26T13:46:35.605Z,40.00
2023-07-26T13:48:08.390Z,39.99
2023-07-26T13:49:41.639Z,39.94
2023-07-26T13:51:15.182Z,39.86
2023-07-26T13:52:47.410Z,39.73
2023-07-26T13:54:21.974Z,39.66
2023-07-26T13:55:54.067Z,39.62
2023-07-26T13:57:29.853Z,39.69
2023-07-26T13:59:03.113Z,39.76
2023-07-26T14:00:36.356Z,39.85
2023-07-26T14:02:08.766Z,39.98
2023-07-26T14:03:42.296Z,40.06
2023-07-26T14:05:15.479Z,40.09
2023-07-26T14:06:47.778Z,39.96
2023-07-26T14:08:20.952Z,39.88
2023-07-26T14:09:55.777Z,39.96
2023-07-26T14:11:30.276Z,39.93
2023-07-26T14:13:03.818Z,39.82
2023-07-26T14:14:37.359Z,39.85
2023-07-26T14:16:21.964Z,39.85
2023-07-26T14:18:04.159Z,39.80
2023-07-26T14:19:37.144Z,39.61
2023-07-26T14:21:12.277Z,39.48
2023-07-26T14:22:45.661Z,39.20
2023-07-26T14:24:18.050Z,39.17
2023-07-26T14:25:53.027Z,39.00
2023-07-26T14:27:26.237Z,38.90
2023-07-26T14:29:00.569Z,38.73
2023-07-26T14:30:33.742Z,38.71
2023-07-26T14:32:08.765Z,38.69
2023-07-26T14:33:41.109Z,38.59
2023-07-26T14:35:14.335Z,38.53
2023-07-26T14:36:46.517Z,38.50
2023-07-26T14:38:20.211Z,38.46
2023-07-26T14:39:52.528Z,38.47
2023-07-26T14:41:27.106Z,38.47
2023-07-26T14:43:01.171Z,38.29
2023-07-26T14:44:37.562Z,38.09
2023-07-26T14:46:11.160Z,37.98
2023-07-26T14:47:43.634Z,37.81
2023-07-26T14:49:16.801Z,37.68
2023-07-26T14:50:49.217Z,37.52
2023-07-26T14:52:22.375Z,37.29
2023-07-26T14:53:54.742Z,37.21
2023-07-26T14:55:28.652Z,37.17
2023-07-26T14:57:11.503Z,37.04
2023-07-26T14:58:45.448Z,37.05
2023-07-26T15:00:18.095Z,36.94
2023-07-26T15:01:51.275Z,37.03
2023-07-26T15:03:23.961Z,37.03
2023-07-26T15:04:57.286Z,37.06
2023-07-26T15:06:30.899Z,37.16
2023-07-26T15:08:03.281Z,37.15
2023-07-26T15:09:37.120Z,37.24
2023-07-26T15:11:09.430Z,37.21
2023-07-26T15:12:44.009Z,37.06
2023-07-26T15:14:16.157Z,36.95
2023-07-26T15:15:50.596Z,36.85
2023-07-26T15:17:24.073Z,36.65
2023-07-26T15:18:57.274Z,36.59
2023-07-26T15:20:29.632Z,36.55
2023-07-26T15:22:03.634Z,36.38
2023-07-26T15:23:36.483Z,36.35
2023-07-26T15:25:10.386Z,36.20
2023-07-26T15:26:43.884Z,36.10
2023-07-26T15:28:18.940Z,36.08
2023-07-26T15:29:51.162Z,36.11
2023-07-26T15:31:26.875Z,36.13
2023-07-26T15:32:59.160Z,36.14
2023-07-26T15:34:32.634Z,36.18
2023-07-26T15:36:10.250Z,36.08
2023-07-26T15:37:43.088Z,36.05
2023-07-26T15:39:16.320Z,35.97
2023-07-26T15:40:50.408Z,35.91
2023-07-26T15:47:14.800Z,35.84
2023-07-26T15:48:47.237Z,35.73
2023-07-26T15:50:28.866Z,35.74
2023-07-26T15:52:05.253Z,35.68
2023-07-26T15:53:39.203Z,35.70
2023-07-26T15:55:11.726Z,35.66
2023-07-26T15:56:45.345Z,35.74
2023-07-26T15:58:18.816Z,35.76
2023-07-26T15:59:53.888Z,35.71
2023-07-26T16:01:26.243Z,35.78
2023-07-26T16:04:34.912Z,35.66
2023-07-26T16:10:58.450Z,35.40
2023-07-26T16:12:32.070Z,35.42
2023-07-26T16:17:20.810Z,35.33
2023-07-26T16:20:29.263Z,35.05
2023-07-26T16:22:02.463Z,34.92
2023-07-26T16:23:34.938Z,34.84
2023-07-26T16:25:09.362Z,34.84
2023-07-26T16:26:41.531Z,34.62
2023-07-26T16:28:14.713Z,34.49
2023-07-26T16:29:47.074Z,34.41
2023-07-26T16:31:21.923Z,34.22
2023-07-26T16:32:55.597Z,33.97
2023-07-26T16:34:27.824Z,33.77
2023-07-26T16:36:01.310Z,33.61
2023-07-26T16:37:33.857Z,33.32
2023-07-26T16:39:07.365Z,33.12
2023-07-26T16:40:40.437Z,32.85
2023-07-26T16:42:13.998Z,32.63
2023-07-26T16:43:46.544Z,32.57
2023-07-26T16:45:19.739Z,32.38
2023-07-26T16:47:08.182Z,32.04
2023-07-26T16:48:42.641Z,31.82
2023-07-26T16:50:15.590Z,31.61
2023-07-26T16:51:48.801Z,31.64
2023-07-26T16:53:21.031Z,31.69
2023-07-26T16:54:54.453Z,31.48
2023-07-26T16:56:26.787Z,31.38
2023-07-26T16:57:59.892Z,31.22
2023-07-26T16:59:32.062Z,31.23
2023-07-26T17:01:07.885Z,31.08
2023-07-26T17:02:41.711Z,30.88
2023-07-26T17:04:15.098Z,30.75
2023-07-26T17:05:47.491Z,30.37
2023-07-26T17:07:20.708Z,29.97
2023-07-26T17:08:53.258Z,29.69
2023-07-26T17:10:26.589Z,29.45
2023-07-26T17:11:59.085Z,29.18
2023-07-26T17:13:33.088Z,29.10
2023-07-26T17:15:07.613Z,28.76
2023-07-26T17:16:39.891Z,28.50
2023-07-26T17:18:15.116Z,28.13
2023-07-26T17:19:47.276Z,27.71
2023-07-26T17:21:22.054Z,27.61
2023-07-26T17:22:54.245Z,27.45
2023-07-26T17:24:27.681Z,27.09
2023-07-26T17:25:59.851Z,27.00
2023-07-26T17:27:33.972Z,27.11
2023-07-26T17:29:06.420Z,27.09
2023-07-26T17:30:39.972Z,26.99
2023-07-26T17:32:12.133Z,27.03
2023-07-26T17:33:47.028Z,27.00
2023-07-26T17:35:19.261Z,26.93
2023-07-26T17:36:57.047Z,26.79
2023-07-26T17:38:29.241Z,26.76
2023-07-26T17:40:05.640Z,26.72
2023-07-26T17:41:38.320Z,26.57
2023-07-26T17:43:12.213Z,26.47
2023-07-26T17:44:44.470Z,26.57
2023-07-26T17:46:19.203Z,26.60
2023-07-26T17:47:51.501Z,26.57
2023-07-26T17:49:26.594Z,26.53
2023-07-26T17:50:59.481Z,26.56
2023-07-26T17:52:33.095Z,26.39
2023-07-26T17:54:05.370Z,26.33
2023-07-26T17:55:38.756Z,26.33
2023-07-26T17:57:11.031Z,26.29
2023-07-26T17:58:44.661Z,26.30
2023-07-26T18:00:17.570Z,26.27
2023-07-26T18:01:53.451Z,26.29
2023-07-26T18:03:25.971Z,26.35
2023-07-26T18:05:00.929Z,26.41
2023-07-26T18:06:33.118Z,26.28
2023-07-26T18:08:07.733Z,26.16
2023-07-26T18:09:40.972Z,26.10
2023-07-26T18:11:16.187Z,26.02
2023-07-26T18:12:48.509Z,26.01
2023-07-26T18:14:23.318Z,26.01
2023-07-26T18:16:07.153Z,25.85
2023-07-26T18:17:39.741Z,25.88
2023-07-26T18:19:12.964Z,25.90
2023-07-26T18:20:46.806Z,25.88
2023-07-26T18:22:20.019Z,25.81
2023-07-26T18:23:52.879Z,25.83
2023-07-26T18:25:26.112Z,25.84
2023-07-26T18:26:59.567Z,25.82
2023-07-26T18:28:31.702Z,25.84
2023-07-26T18:30:05.914Z,25.74
2023-07-26T18:31:40.530Z,25.70
2023-07-26T18:33:15.072Z,25.64
2023-07-26T18:34:47.360Z,25.54
2023-07-26T18:36:22.036Z,25.50
2023-07-26T18:37:54.238Z,25.40
2023-07-26T18:39:27.469Z,25.43
2023-07-26T18:40:59.956Z,25.45
2023-07-26T18:42:33.589Z,25.48
2023-07-26T18:44:06.066Z,25.50
2023-07-26T18:45:39.426Z,25.47
2023-07-26T18:47:12.704Z,25.29
2023-07-26T18:48:45.358Z,25.11
2023-07-26T18:50:18.645Z,25.11
2023-07-26T18:51:53.254Z,25.12
2023-07-26T18:53:26.487Z,25.11
2023-07-26T18:54:58.843Z,25.10
2023-07-26T18:56:32.234Z,25.01
2023-07-26T18:58:04.609Z,24.93
2023-07-26T18:59:39.614Z,24.93
2023-07-26T19:01:15.066Z,24.94
2023-07-26T19:02:48.544Z,24.96
2023-07-26T19:04:21.818Z,24.99
2023-07-26T19:05:57.182Z,24.95
2023-07-26T19:07:34.531Z,24.96
2023-07-26T19:09:07.934Z,24.87
2023-07-26T19:10:40.741Z,24.85
2023-07-26T19:12:14.018Z,24.82
2023-07-26T19:13:47.518Z,24.81
2023-07-26T19:15:20.764Z,24.81
2023-07-26T19:16:53.043Z,24.76
2023-07-26T19:18:26.202Z,24.74
2023-07-26T19:19:58.761Z,24.69
2023-07-26T19:21:31.996Z,24.67
2023-07-26T19:23:05.764Z,24.76
2023-07-26T19:24:39.059Z,24.82
2023-07-26T19:26:13.455Z,24.72
2023-07-26T19:27:46.666Z,24.65
2023-07-26T19:29:19.150Z,24.70
2023-07-26T19:30:52.833Z,24.67
2023-07-26T19:32:27.501Z,24.71
2023-07-26T19:33:59.681Z,24.68
2023-07-26T19:35:32.855Z,24.64
2023-07-26T19:37:07.301Z,24.71
2023-07-26T19:38:40.984Z,24.60
2023-07-26T19:40:14.985Z,24.62
2023-07-26T19:41:47.227Z,24.61
2023-07-26T19:43:20.438Z,24.68
2023-07-26T19:44:54.055Z,24.70
2023-07-26T19:46:27.326Z,24.72
2023-07-26T19:47:59.596Z,24.71
2023-07-26T19:49:32.800Z,24.75
2023-07-26T19:51:05.660Z,24.67
2023-07-26T19:52:40.332Z,24.69
2023-07-26T19:54:14.738Z,24.78
2023-07-26T19:55:48.616Z,24.75
2023-07-26T19:57:21.075Z,24.80
2023-07-26T19:58:54.320Z,24.82
2023-07-26T20:00:26.501Z,24.86
2023-07-26T20:01:59.691Z,24.91
2023-07-26T20:03:32.113Z,24.92
2023-07-26T20:05:05.749Z,24.93
2023-07-26T20:06:38.112Z,24.91
2023-07-26T20:08:11.394Z,24.96
2023-07-26T20:09:46.516Z,24.88
2023-07-26T20:11:19.732Z,24.92
2023-07-26T20:12:51.914Z,24.95
2023-07-26T20:14:25.137Z,24.95
2023-07-26T20:15:59.104Z,25.00
2023-07-26T20:17:31.482Z,24.99
2023-07-26T20:19:04.708Z,25.00
2023-07-26T20:20:38.145Z,24.97
2023-07-26T20:22:11.378Z,24.98
2023-07-26T20:23:44.563Z,25.00
2023-07-26T20:25:18.353Z,25.06
2023-07-26T20:26:51.580Z,25.10
2023-07-26T20:28:24.626Z,25.08
2023-07-26T20:29:58.165Z,25.01
2023-07-26T20:31:31.491Z,24.90
2023-07-26T20:33:03.976Z,24.72
2023-07-26T20:34:37.628Z,24.60
2023-07-26T20:36:09.791Z,24.45
2023-07-26T20:37:42.946Z,24.37
2023-07-26T20:39:15.085Z,24.30
2023-07-26T20:40:52.249Z,24.18
2023-07-26T20:42:24.966Z,24.18
2023-07-26T20:43:58.059Z,24.12
2023-07-26T20:45:30.888Z,24.13
2023-07-26T20:47:04.201Z,24.11
2023-07-26T20:48:36.746Z,24.07
2023-07-26T20:50:10.708Z,24.08
2023-07-26T20:51:43.632Z,24.02
2023-07-26T20:53:17.082Z,23.99
2023-07-26T20:54:49.572Z,23.98
2023-07-26T20:56:24.298Z,23.99
2023-07-26T20:57:56.805Z,23.98
2023-07-26T20:59:32.056Z,23.99
2023-07-26T21:01:05.319Z,23.97
2023-07-26T21:02:39.303Z,24.00
2023-07-26T21:04:13.001Z,24.00
2023-07-26T21:05:46.448Z,23.98
2023-07-26T21:07:19.647Z,23.96
2023-07-26T21:08:53.418Z,23.92
2023-07-26T21:10:27.207Z,23.93
2023-07-26T21:12:01.128Z,23.97
2023-07-26T21:13:34.503Z,23.95
2023-07-26T21:15:07.737Z,23.99
2023-07-26T21:16:41.415Z,24.02
2023-07-26T21:18:13.855Z,24.02
2023-07-26T21:19:47.118Z,24.06
2023-07-26T21:21:19.621Z,24.08
2023-07-26T21:22:53.138Z,24.09
2023-07-26T21:24:26.636Z,24.12
2023-07-26T21:25:59.805Z,24.13
2023-07-26T21:27:33.488Z,24.11
2023-07-26T21:29:06.935Z,24.06
2023-07-26T21:30:39.401Z,24.08
2023-07-26T21:32:12.735Z,24.00
2023-07-26T21:33:45.064Z,23.94
2023-07-26T21:35:18.455Z,23.79
2023-07-26T21:36:52.441Z,23.75
2023-07-26T21:38:25.727Z,23.71
2023-07-26T21:40:00.456Z,23.73
2023-07-26T21:41:33.797Z,23.71
2023-07-26T21:43:08.058Z,23.71
2023-07-26T21:44:41.511Z,23.71
2023-07-26T21:46:13.991Z,23.68
2023-07-26T21:47:47.263Z,23.74
2023-07-26T21:49:20.033Z,23.76
2023-07-26T21:50:53.603Z,23.74
2023-07-26T21:52:26.012Z,23.78
2023-07-26T21:53:59.232Z,23.79
2023-07-26T21:55:31.768Z,23.83
2023-07-26T21:57:05.278Z,23.82
2023-07-26T21:58:39.027Z,23.79
2023-07-26T22:00:13.715Z,23.78
2023-07-26T22:01:45.999Z,23.72
2023-07-26T22:03:19.787Z,23.69
2023-07-26T22:04:52.743Z,23.67
2023-07-26T22:06:26.012Z,23.58
2023-07-26T22:07:58.144Z,23.52
2023-07-26T22:09:32.948Z,23.48
2023-07-26T22:11:05.108Z,23.44
2023-07-26T22:12:38.618Z,23.40
2023-07-26T22:14:13.367Z,23.36
2023-07-26T22:15:46.350Z,23.32
2023-07-26T22:17:19.701Z,23.25
2023-07-26T22:18:51.971Z,23.23
2023-07-26T22:20:25.332Z,23.18
2023-07-26T22:21:57.870Z,23.07
2023-07-26T22:23:34.093Z,23.09
2023-07-26T22:25:06.738Z,23.13
2023-07-26T22:26:40.462Z,23.11
2023-07-26T22:28:12.759Z,23.08
2023-07-26T22:29:47.299Z,23.04
2023-07-26T22:31:19.811Z,23.08
2023-07-26T22:32:53.139Z,23.03
2023-07-26T22:34:25.600Z,23.00
2023-07-26T22:35:58.759Z,23.00
2023-07-26T22:37:32.264Z,23.06
2023-07-26T22:39:06.002Z,23.04
2023-07-26T22:40:38.239Z,23.05
2023-07-26T22:42:11.476Z,23.03
2023-07-26T22:43:46.332Z,23.02
2023-07-26T22:45:21.860Z,23.04
2023-07-26T22:46:55.540Z,23.03
2023-07-26T22:48:28.746Z,22.98
2023-07-26T22:50:00.891Z,23.00
2023-07-26T22:51:34.365Z,23.00
2023-07-26T22:53:07.359Z,23.02
2023-07-26T22:54:40.560Z,23.05
2023-07-26T22:56:13.965Z,23.05
2023-07-26T22:57:47.162Z,23.02
2023-07-26T22:59:19.431Z,23.00
2023-07-26T23:01:00.544Z,23.00
2023-07-26T23:02:32.958Z,22.97
2023-07-26T23:04:06.362Z,22.99
2023-07-26T23:05:38.980Z,22.97
2023-07-26T23:07:12.224Z,22.89
2023-07-26T23:08:45.746Z,22.94
2023-07-26T23:10:18.150Z,22.93
2023-07-26T23:11:51.282Z,22.92
2023-07-26T23:13:23.489Z,22.93
2023-07-26T23:14:56.954Z,22.84
2023-07-26T23:16:30.885Z,22.83
2023-07-26T23:18:04.445Z,22.80
2023-07-26T23:19:36.613Z,22.79
2023-07-26T23:21:09.739Z,22.79
2023-07-26T23:22:42.029Z,22.79
2023-07-26T23:24:15.391Z,22.80
2023-07-26T23:25:48.314Z,22.77
2023-07-26T23:27:21.668Z,22.80
2023-07-26T23:28:54.030Z,22.77
2023-07-26T23:30:27.479Z,22.74
2023-07-26T23:32:01.035Z,22.74
2023-07-26T23:33:34.335Z,22.77
2023-07-26T23:35:08.281Z,22.67
2023-07-26T23:36:40.460Z,22.63
2023-07-26T23:38:13.845Z,22.56
2023-07-26T23:39:47.281Z,22.48
2023-07-26T23:41:19.579Z,22.46
2023-07-26T23:42:52.783Z,22.46
2023-07-26T23:44:24.962Z,22.49
2023-07-26T23:45:58.471Z,22.47
2023-07-26T23:47:32.482Z,22.44
2023-07-26T23:49:05.829Z,22.50
2023-07-26T23:50:38.100Z,22.48
2023-07-26T23:52:11.305Z,22.47
2023-07-26T23:53:43.889Z,22.45
2023-07-26T23:55:17.536Z,22.43
2023-07-26T23:56:49.692Z,22.41
2023-07-26T23:58:22.881Z,22.42
2023-07-26T23:59:55.134Z,22.45
